Time;durP1;ratioP1;P1;durP2;ratioP2;P2;SDS_P1;SDS_P2;PMS_P1;PMS_P2;Temp;Humidity;BMP_temperature;BMP_pressure;BME280_temperature;BME280_humidity;BME280_pressure;Samples;Min_cycle;Max_cycle;Signal;HPM_P1;HPM_P2
2022/03/22 00:00:38;;;;;;;46.53;28.38;;;10.40;98.00;;;;;;5087975;28;20082;-60
2022/03/22 00:03:05;;;;;;;49.03;28.08;;;10.50;98.10;;;;;;5086571;28;20186;-58
2022/03/22 00:05:32;;;;;;;54.92;28.27;;;10.50;98.10;;;;;;5069357;28;20552;-58
2022/03/22 00:08:00;;;;;;;55.97;27.83;;;10.50;98.10;;;;;;5086820;28;20048;-58
2022/03/22 00:10:28;;;;;;;53.08;27.27;;;10.50;98.20;;;;;;5086927;28;20055;-57
2022/03/22 00:12:55;;;;;;;50.85;26.42;;;10.50;98.30;;;;;;5086418;28;20185;-57
2022/03/22 00:15:22;;;;;;;50.35;28.20;;;10.60;98.30;;;;;;5087074;28;20117;-58
2022/03/22 00:18:10;;;;;;;45.42;27.30;;;10.60;98.30;;;;;;5081586;28;20406;-58
2022/03/22 00:20:37;;;;;;;51.42;29.23;;;10.60;98.20;;;;;;5086490;28;20048;-59
2022/03/22 00:23:04;;;;;;;58.35;27.10;;;10.60;98.30;;;;;;5088107;28;20036;-56
2022/03/22 00:25:30;;;;;;;51.67;28.42;;;10.60;98.30;;;;;;5090867;28;20487;-58
2022/03/22 00:27:57;;;;;;;53.50;29.38;;;10.60;98.40;;;;;;5090807;28;20136;-58
2022/03/22 00:30:29;;;;;;;49.08;29.05;;;10.60;98.40;;;;;;5091016;28;20445;-57
2022/03/22 00:32:57;;;;;;;52.92;28.15;;;10.60;98.40;;;;;;5090809;28;20105;-56
2022/03/22 00:35:27;;;;;;;48.17;28.50;;;10.60;98.50;;;;;;5090839;28;20093;-54
2022/03/22 00:37:54;;;;;;;53.53;30.25;;;10.60;98.50;;;;;;5090758;28;20491;-60
2022/03/22 00:40:21;;;;;;;52.30;28.48;;;10.60;98.60;;;;;;5089467;28;20071;-57
2022/03/22 00:42:48;;;;;;;55.03;30.10;;;10.60;98.60;;;;;;5091168;28;20062;-56
2022/03/22 00:45:16;;;;;;;48.03;28.10;;;10.60;98.60;;;;;;5090592;28;20571;-58
2022/03/22 00:47:46;;;;;;;60.83;31.83;;;10.60;98.60;;;;;;5091112;28;20048;-57
2022/03/22 00:50:13;;;;;;;65.32;31.45;;;10.60;98.80;;;;;;5090269;28;20087;-57
2022/03/22 00:52:40;;;;;;;59.50;33.15;;;10.60;98.70;;;;;;5070511;28;20052;-57
2022/03/22 00:55:08;;;;;;;52.13;30.52;;;10.60;98.80;;;;;;5090506;28;20044;-55
2022/03/22 00:57:35;;;;;;;56.30;32.88;;;10.60;98.90;;;;;;5090458;28;20048;-58
2022/03/22 01:00:07;;;;;;;58.13;33.72;;;10.60;98.90;;;;;;5090275;28;20068;-54
2022/03/22 01:02:34;;;;;;;57.90;32.60;;;10.60;99.00;;;;;;5090661;28;20040;-54
2022/03/22 01:05:03;;;;;;;60.03;35.92;;;10.60;99.00;;;;;;5090454;28;20126;-58
2022/03/22 01:07:30;;;;;;;57.00;33.28;;;10.60;99.00;;;;;;5090980;28;20054;-56
2022/03/22 01:09:57;;;;;;;60.30;33.42;;;10.60;99.00;;;;;;5090278;28;20415;-57
2022/03/22 01:12:23;;;;;;;56.05;32.97;;;10.60;99.10;;;;;;5090771;28;20048;-60
2022/03/22 01:14:50;;;;;;;71.95;33.97;;;10.50;99.20;;;;;;4737457;28;10000376;-57
2022/03/22 01:17:17;;;;;;;58.28;35.25;;;10.50;99.20;;;;;;5087594;28;20052;-56
2022/03/22 01:19:46;;;;;;;63.65;36.45;;;10.50;99.20;;;;;;5089067;28;20051;-57
2022/03/22 01:22:16;;;;;;;59.15;35.35;;;10.50;99.30;;;;;;5072140;28;20044;-58
2022/03/22 01:24:44;;;;;;;65.13;37.28;;;10.40;99.60;;;;;;5090239;28;20075;-55
2022/03/22 01:27:11;;;;;;;68.85;37.15;;;10.40;99.40;;;;;;5089799;28;20050;-55
2022/03/22 01:29:38;;;;;;;65.45;35.83;;;10.40;99.50;;;;;;5089894;28;20048;-57
2022/03/22 01:32:05;;;;;;;61.13;34.05;;;10.40;99.50;;;;;;5071785;28;20482;-56
2022/03/22 01:34:32;;;;;;;60.85;35.35;;;10.40;99.50;;;;;;5089631;28;20665;-60
2022/03/22 01:36:59;;;;;;;69.30;37.17;;;10.30;99.60;;;;;;5089425;28;20067;-57
2022/03/22 01:39:26;;;;;;;65.07;37.53;;;10.30;99.60;;;;;;5090017;28;20181;-58
2022/03/22 01:41:53;;;;;;;70.78;38.28;;;10.30;99.60;;;;;;5089074;28;20132;-59
2022/03/22 01:44:19;;;;;;;64.55;34.97;;;10.30;99.70;;;;;;5089568;28;20079;-56
2022/03/22 01:46:46;;;;;;;71.47;35.45;;;10.20;99.70;;;;;;5088942;28;20056;-57
2022/03/22 01:49:13;;;;;;;63.58;34.70;;;10.20;99.70;;;;;;5041721;28;20044;-58
2022/03/22 01:51:40;;;;;;;77.97;38.03;;;10.20;99.70;;;;;;5086333;28;20110;-57
2022/03/22 01:54:07;;;;;;;68.32;37.97;;;10.20;99.80;;;;;;5071325;28;20534;-57
2022/03/22 01:56:33;;;;;;;77.97;39.58;;;10.10;99.80;;;;;;5071145;28;20063;-57
2022/03/22 01:59:00;;;;;;;64.90;39.85;;;10.10;99.90;;;;;;5089173;28;20076;-57
2022/03/22 02:07:00;;;;;;;71.72;39.15;;;9.90;99.90;;;;;;5073867;28;20151;-55
2022/03/22 02:09:27;;;;;;;70.60;38.67;;;9.80;99.90;;;;;;5071175;28;20105;-56
2022/03/22 02:11:53;;;;;;;72.97;40.67;;;9.80;99.90;;;;;;5088643;28;20074;-58
2022/03/22 02:14:20;;;;;;;71.30;39.13;;;9.70;99.90;;;;;;5089193;28;20289;-55
2022/03/22 02:16:47;;;;;;;69.32;40.00;;;9.70;99.90;;;;;;5088453;28;20533;-54
2022/03/22 02:19:14;;;;;;;74.25;39.72;;;9.70;99.90;;;;;;5088848;28;20075;-56
2022/03/22 02:21:41;;;;;;;81.38;42.50;;;9.60;99.90;;;;;;5088242;28;20083;-57
2022/03/22 02:24:08;;;;;;;74.97;41.05;;;9.60;99.90;;;;;;5071269;28;20080;-56
2022/03/22 02:26:36;;;;;;;79.10;40.58;;;9.50;99.90;;;;;;5088805;28;20044;-57
2022/03/22 02:29:03;;;;;;;72.35;40.53;;;9.40;99.90;;;;;;5088624;28;20047;-56
2022/03/22 02:31:30;;;;;;;80.97;42.42;;;9.40;99.90;;;;;;5088639;28;20043;-60
2022/03/22 02:33:57;;;;;;;81.53;43.35;;;9.40;99.90;;;;;;5087523;28;20048;-58
2022/03/22 02:36:24;;;;;;;75.32;41.22;;;9.30;99.90;;;;;;5089790;28;20040;-56
2022/03/22 02:38:51;;;;;;;74.85;41.40;;;9.30;99.90;;;;;;5089172;28;20048;-58
2022/03/22 02:41:20;;;;;;;72.93;41.15;;;9.30;99.90;;;;;;5089552;28;20052;-58
2022/03/22 02:43:47;;;;;;;77.70;43.17;;;9.30;99.90;;;;;;5089057;28;20083;-55
2022/03/22 02:46:14;;;;;;;79.63;43.65;;;9.30;99.90;;;;;;5088663;28;20086;-58
2022/03/22 02:48:42;;;;;;;82.82;42.55;;;9.20;99.90;;;;;;5071144;28;20325;-57
2022/03/22 02:51:09;;;;;;;81.50;44.92;;;9.20;99.90;;;;;;5089751;28;20071;-57
2022/03/22 02:53:36;;;;;;;86.38;44.38;;;9.20;99.90;;;;;;5088720;28;20101;-56
2022/03/22 02:56:02;;;;;;;82.07;45.00;;;9.20;99.90;;;;;;5088728;28;20044;-56
2022/03/22 02:58:29;;;;;;;86.45;44.38;;;9.20;99.90;;;;;;5087747;28;20094;-57
2022/03/22 03:00:56;;;;;;;88.43;46.72;;;9.20;99.90;;;;;;5069811;28;20434;-57
2022/03/22 03:03:23;;;;;;;89.15;44.92;;;9.20;99.90;;;;;;5087401;28;20059;-58
2022/03/22 03:05:50;;;;;;;86.25;46.10;;;9.20;99.90;;;;;;5087744;28;20055;-57
2022/03/22 03:08:18;;;;;;;83.00;44.65;;;9.20;99.90;;;;;;5079917;28;20040;-57
2022/03/22 03:10:45;;;;;;;83.45;43.28;;;9.30;99.90;;;;;;5087925;28;20052;-57
2022/03/22 03:13:12;;;;;;;81.80;45.33;;;9.30;99.90;;;;;;5087247;28;20495;-55
2022/03/22 03:15:39;;;;;;;85.45;45.90;;;9.30;99.90;;;;;;5069334;28;20075;-56
2022/03/22 03:18:06;;;;;;;88.03;46.47;;;9.30;99.90;;;;;;5087615;28;20083;-57
2022/03/22 03:20:32;;;;;;;81.20;45.30;;;9.30;99.90;;;;;;5087281;28;20048;-56
2022/03/22 03:22:59;;;;;;;81.80;45.47;;;9.40;99.90;;;;;;5087587;28;20044;-58
2022/03/22 03:25:27;;;;;;;91.18;47.28;;;9.40;99.90;;;;;;5086832;28;20518;-56
2022/03/22 03:27:53;;;;;;;78.72;46.20;;;9.40;99.90;;;;;;5087463;28;20052;-57
2022/03/22 03:30:20;;;;;;;81.40;45.28;;;9.50;99.90;;;;;;5086873;28;20399;-58
2022/03/22 03:32:47;;;;;;;87.15;46.42;;;9.40;99.90;;;;;;5087205;28;20055;-57
2022/03/22 03:35:14;;;;;;;77.72;44.05;;;9.50;99.90;;;;;;5087167;28;20040;-57
2022/03/22 03:37:44;;;;;;;91.25;46.40;;;9.50;99.90;;;;;;5087443;28;20076;-56
2022/03/22 03:40:11;;;;;;;86.20;46.67;;;9.50;99.90;;;;;;5086982;28;20471;-56
2022/03/22 03:42:44;;;;;;;82.93;46.50;;;9.50;99.90;;;;;;5087345;28;20066;-55
2022/03/22 03:47:57;;;;;;;82.80;47.03;;;9.50;99.90;;;;;;5088125;28;20566;-56
2022/03/22 03:50:24;;;;;;;82.25;44.75;;;9.50;99.90;;;;;;5086587;28;20457;-57
2022/03/22 03:52:51;;;;;;;93.35;46.75;;;9.50;99.90;;;;;;5086701;28;20568;-58
2022/03/22 03:55:18;;;;;;;87.25;45.83;;;9.50;99.90;;;;;;5086522;28;20109;-58
2022/03/22 03:57:46;;;;;;;87.82;47.08;;;9.50;99.90;;;;;;5086455;28;20044;-56
2022/03/22 04:00:15;;;;;;;86.07;47.47;;;9.60;99.90;;;;;;5087070;28;20044;-58
2022/03/22 04:02:42;;;;;;;76.45;45.55;;;9.50;99.90;;;;;;5064262;28;20044;-60
2022/03/22 04:05:09;;;;;;;80.18;46.63;;;9.50;99.90;;;;;;5080415;28;20070;-57
2022/03/22 04:07:36;;;;;;;88.60;47.03;;;9.60;99.90;;;;;;5086711;28;20048;-57
2022/03/22 04:10:04;;;;;;;85.90;48.85;;;9.50;99.90;;;;;;5087148;28;20044;-56
2022/03/22 04:12:31;;;;;;;84.13;46.83;;;9.50;99.90;;;;;;5086840;28;20040;-56
2022/03/22 04:14:58;;;;;;;81.80;46.30;;;9.50;99.90;;;;;;5086656;28;20048;-58
2022/03/22 04:17:25;;;;;;;91.22;48.85;;;9.50;99.90;;;;;;5086803;28;20560;-58
2022/03/22 04:19:53;;;;;;;87.88;47.88;;;9.50;99.90;;;;;;5085033;28;20048;-58
2022/03/22 04:22:20;;;;;;;80.38;45.00;;;9.50;99.90;;;;;;5086301;28;20748;-57
2022/03/22 04:24:47;;;;;;;82.30;45.55;;;9.50;99.90;;;;;;5087006;28;20461;-57
2022/03/22 04:32:45;;;;;;;83.90;46.90;;;9.50;99.90;;;;;;5086336;28;20083;-59
2022/03/22 04:35:17;;;;;;;89.60;46.45;;;9.50;99.90;;;;;;5086336;28;20127;-57
2022/03/22 04:37:49;;;;;;;87.38;48.75;;;9.50;99.90;;;;;;5086421;28;20043;-56
2022/03/22 04:40:16;;;;;;;78.15;46.22;;;9.50;99.90;;;;;;5086731;28;20048;-56
2022/03/22 04:42:43;;;;;;;88.88;47.47;;;9.60;99.90;;;;;;5082307;28;20143;-57
2022/03/22 04:45:10;;;;;;;82.65;46.83;;;9.60;99.90;;;;;;5086987;28;20461;-55
2022/03/22 04:47:37;;;;;;;85.70;46.33;;;9.60;99.90;;;;;;5086962;28;20075;-58
2022/03/22 04:50:05;;;;;;;83.22;47.17;;;9.60;99.90;;;;;;5086952;28;20086;-56
2022/03/22 04:58:03;;;;;;;84.18;46.92;;;9.60;99.90;;;;;;5080954;28;20041;-57
2022/03/22 05:00:29;;;;;;;89.82;50.08;;;9.60;99.90;;;;;;5086778;28;20094;-57
2022/03/22 05:02:56;;;;;;;88.07;48.67;;;9.50;99.90;;;;;;5086061;28;20066;-58
2022/03/22 05:08:08;;;;;;;85.50;49.15;;;9.50;99.90;;;;;;5085826;28;20040;-56
2022/03/22 05:10:35;;;;;;;88.60;48.25;;;9.60;99.90;;;;;;5090311;28;20047;-56
2022/03/22 05:13:02;;;;;;;92.95;49.50;;;9.60;99.90;;;;;;5089575;28;20085;-58
2022/03/22 05:15:31;;;;;;;85.80;48.80;;;9.60;99.90;;;;;;5091439;28;20479;-55
2022/03/22 05:17:58;;;;;;;91.35;48.80;;;9.60;99.90;;;;;;5090670;28;20098;-57
2022/03/22 05:20:25;;;;;;;95.75;48.90;;;9.60;99.90;;;;;;5090781;28;20105;-59
2022/03/22 05:22:52;;;;;;;89.15;49.05;;;9.60;99.90;;;;;;5089915;28;20494;-56
2022/03/22 05:25:19;;;;;;;86.63;47.05;;;9.60;99.90;;;;;;5089841;28;20094;-55
2022/03/22 05:27:46;;;;;;;90.70;48.90;;;9.60;99.90;;;;;;5089489;28;20724;-56
2022/03/22 05:30:13;;;;;;;87.68;48.53;;;9.60;99.90;;;;;;5089473;28;20078;-55
2022/03/22 05:32:41;;;;;;;90.97;49.20;;;9.60;99.90;;;;;;5089339;28;20066;-54
2022/03/22 05:35:08;;;;;;;89.45;47.25;;;9.70;99.90;;;;;;5089056;28;20784;-56
2022/03/22 05:37:35;;;;;;;92.60;48.63;;;9.70;99.90;;;;;;5089740;28;20421;-54
2022/03/22 05:40:02;;;;;;;93.30;47.90;;;9.70;99.90;;;;;;5089046;28;20063;-55
2022/03/22 05:42:29;;;;;;;92.32;49.15;;;9.70;99.90;;;;;;5089256;28;20093;-57
2022/03/22 05:44:56;;;;;;;94.57;49.20;;;9.60;99.90;;;;;;5089101;28;20570;-56
2022/03/22 05:47:23;;;;;;;94.18;49.47;;;9.60;99.90;;;;;;5089215;28;20052;-57
2022/03/22 05:49:50;;;;;;;86.55;49.28;;;9.60;99.90;;;;;;5088407;28;20052;-56
2022/03/22 05:52:17;;;;;;;87.30;47.53;;;9.60;99.90;;;;;;5089229;28;20084;-55
2022/03/22 05:54:43;;;;;;;94.38;49.47;;;9.60;99.90;;;;;;5070888;28;20048;-56
2022/03/22 05:57:10;;;;;;;83.78;45.88;;;9.60;99.90;;;;;;5089391;28;20086;-57
2022/03/22 05:59:37;;;;;;;87.80;48.67;;;9.60;99.90;;;;;;5088407;28;20073;-57
2022/03/22 06:02:04;;;;;;;83.63;46.63;;;9.70;99.90;;;;;;5089333;28;20082;-56
2022/03/22 06:04:31;;;;;;;85.13;47.15;;;9.70;99.90;;;;;;5088412;28;20093;-56
2022/03/22 06:07:00;;;;;;;95.93;48.88;;;9.60;99.90;;;;;;5087918;28;20070;-55
2022/03/22 06:09:27;;;;;;;91.63;48.40;;;9.60;99.90;;;;;;5088641;28;20047;-53
2022/03/22 06:11:54;;;;;;;87.45;48.28;;;9.60;99.90;;;;;;5088743;28;20100;-57
2022/03/22 06:14:21;;;;;;;84.43;46.28;;;9.60;99.90;;;;;;5088912;28;20044;-57
2022/03/22 06:16:47;;;;;;;90.10;47.53;;;9.60;99.90;;;;;;5088789;28;20097;-57
2022/03/22 06:19:14;;;;;;;82.03;44.83;;;9.60;99.90;;;;;;5088667;28;20313;-57
2022/03/22 06:21:41;;;;;;;81.50;46.92;;;9.60;99.90;;;;;;5087537;28;20044;-57
2022/03/22 06:24:08;;;;;;;88.50;47.95;;;9.60;99.90;;;;;;5088653;28;20048;-57
2022/03/22 06:26:35;;;;;;;84.22;46.83;;;9.60;99.90;;;;;;5088625;28;20044;-58
2022/03/22 06:29:02;;;;;;;85.28;46.70;;;9.70;99.90;;;;;;5088933;28;20044;-57
2022/03/22 06:31:33;;;;;;;97.30;51.58;;;9.60;99.90;;;;;;5088278;28;20044;-57
2022/03/22 06:34:03;;;;;;;87.78;48.65;;;9.70;99.90;;;;;;5088719;28;20093;-57
2022/03/22 06:36:29;;;;;;;95.18;46.35;;;9.70;99.90;;;;;;5088159;28;20067;-56
2022/03/22 06:38:56;;;;;;;83.10;45.45;;;9.70;99.90;;;;;;5088887;28;20067;-57
2022/03/22 06:41:23;;;;;;;91.60;45.55;;;9.70;99.90;;;;;;5088428;28;20040;-56
2022/03/22 06:43:53;;;;;;;90.53;46.00;;;9.70;99.90;;;;;;5088276;28;20565;-57
2022/03/22 06:46:22;;;;;;;89.07;45.42;;;9.70;99.90;;;;;;5087977;28;20584;-57
2022/03/22 06:48:49;;;;;;;91.75;46.97;;;9.70;99.90;;;;;;5088526;28;20052;-58
2022/03/22 06:51:22;;;;;;;85.78;45.47;;;9.80;99.90;;;;;;5088541;28;20047;-55
2022/03/22 06:53:49;;;;;;;84.93;45.88;;;9.80;99.90;;;;;;5069987;28;20498;-57
2022/03/22 06:56:16;;;;;;;90.50;45.38;;;9.90;99.90;;;;;;5087488;28;20036;-57
2022/03/22 06:58:42;;;;;;;90.35;46.00;;;9.90;99.90;;;;;;5087502;28;20425;-58
2022/03/22 07:01:10;;;;;;;86.47;47.15;;;9.90;99.90;;;;;;5087551;28;20495;-59
2022/03/22 07:03:42;;;;;;;88.07;48.75;;;10.00;99.90;;;;;;5082594;28;20125;-60
2022/03/22 07:06:08;;;;;;;89.60;47.58;;;10.00;99.90;;;;;;5087151;28;20419;-57
2022/03/22 07:08:36;;;;;;;92.32;48.45;;;10.10;99.90;;;;;;5087060;28;20130;-58
2022/03/22 07:13:49;;;;;;;83.40;46.22;;;10.20;99.90;;;;;;5072271;28;20605;-60
2022/03/22 07:16:16;;;;;;;89.32;47.63;;;10.20;99.90;;;;;;5069341;28;20139;-60
2022/03/22 07:18:43;;;;;;;88.47;47.25;;;10.30;99.90;;;;;;5085856;28;20078;-60
2022/03/22 07:21:10;;;;;;;88.05;48.15;;;10.40;99.90;;;;;;5085256;28;20559;-60
2022/03/22 07:23:38;;;;;;;85.43;46.75;;;10.40;99.90;;;;;;5086766;28;20046;-60
2022/03/22 07:26:05;;;;;;;91.88;45.78;;;10.50;99.90;;;;;;5082510;28;20050;-60
2022/03/22 07:28:32;;;;;;;79.95;44.70;;;10.60;99.90;;;;;;5085789;28;20047;-59
2022/03/22 07:30:59;;;;;;;86.80;45.67;;;10.70;99.90;;;;;;5085870;28;20060;-60
2022/03/22 07:33:27;;;;;;;92.18;46.03;;;10.80;99.90;;;;;;5067007;28;20529;-59
2022/03/22 07:35:54;;;;;;;92.10;43.72;;;10.90;99.90;;;;;;5086120;28;20071;-61
2022/03/22 07:38:21;;;;;;;82.40;43.15;;;10.90;99.90;;;;;;5084860;28;20047;-60
2022/03/22 07:40:48;;;;;;;71.60;39.88;;;11.00;99.90;;;;;;5085966;28;20044;-60
2022/03/22 07:43:15;;;;;;;71.30;40.17;;;11.00;99.90;;;;;;5085977;28;20052;-59
2022/03/22 07:45:41;;;;;;;81.65;42.38;;;11.00;99.90;;;;;;5085589;28;20560;-58
2022/03/22 07:48:08;;;;;;;79.28;42.00;;;11.10;99.90;;;;;;5085331;28;20127;-58
2022/03/22 07:53:21;;;;;;;83.97;44.83;;;11.10;99.90;;;;;;5082233;28;20149;-63
2022/03/22 07:55:48;;;;;;;80.20;43.70;;;11.10;99.90;;;;;;5084319;28;20158;-59
2022/03/22 07:58:14;;;;;;;98.50;44.03;;;11.20;99.90;;;;;;5084271;28;20040;-58
2022/03/22 08:00:46;;;;;;;83.00;41.67;;;11.20;99.90;;;;;;5084630;28;20113;-59
2022/03/22 08:03:15;;;;;;;79.30;41.20;;;11.20;99.90;;;;;;5082159;28;20067;-58
2022/03/22 08:05:44;;;;;;;84.20;43.30;;;11.30;99.90;;;;;;5084971;28;20050;-60
2022/03/22 08:08:12;;;;;;;80.38;41.78;;;11.30;99.90;;;;;;5084830;28;20075;-58
2022/03/22 08:10:58;;;;;;;69.38;38.38;;;11.40;99.90;;;;;;5084868;28;20061;-59
2022/03/22 08:13:26;;;;;;;74.80;41.00;;;11.40;99.90;;;;;;5085459;28;20044;-58
2022/03/22 08:15:52;;;;;;;75.60;40.10;;;11.50;99.90;;;;;;5085961;28;20097;-59
2022/03/22 08:18:19;;;;;;;67.45;37.20;;;11.60;99.90;;;;;;5084931;28;20052;-60
2022/03/22 08:20:46;;;;;;;67.60;36.83;;;11.70;99.90;;;;;;5084005;28;20521;-59
2022/03/22 08:23:13;;;;;;;78.75;37.97;;;11.70;99.90;;;;;;5084091;28;20047;-59
2022/03/22 08:25:41;;;;;;;75.78;37.47;;;11.80;99.90;;;;;;5085096;28;20256;-58
2022/03/22 08:28:09;;;;;;;75.82;35.90;;;11.80;99.90;;;;;;5065741;28;20056;-58
2022/03/22 08:30:36;;;;;;;63.33;33.85;;;11.90;99.90;;;;;;5082488;28;20087;-58
2022/03/22 08:33:06;;;;;;;71.20;35.65;;;12.00;99.90;;;;;;5084400;28;20542;-58
2022/03/22 08:35:33;;;;;;;58.80;31.77;;;12.10;99.90;;;;;;5084051;28;20059;-58
2022/03/22 08:38:00;;;;;;;62.05;33.35;;;12.20;99.90;;;;;;5084720;28;20048;-58
2022/03/22 08:40:27;;;;;;;64.20;32.47;;;12.30;99.90;;;;;;5083967;28;20048;-58
2022/03/22 08:42:55;;;;;;;70.85;32.88;;;12.40;99.90;;;;;;5083823;28;20365;-56
2022/03/22 08:45:23;;;;;;;60.95;32.40;;;12.50;99.90;;;;;;5070950;28;20135;-59
2022/03/22 08:47:51;;;;;;;63.80;32.03;;;12.60;99.90;;;;;;5055105;28;20071;-58
2022/03/22 08:50:23;;;;;;;53.53;30.20;;;12.70;99.90;;;;;;5072290;28;20051;-59
2022/03/22 08:52:50;;;;;;;56.88;29.20;;;12.80;99.90;;;;;;5089690;28;20048;-58
2022/03/22 08:55:18;;;;;;;57.67;30.95;;;12.90;99.90;;;;;;5087073;28;20044;-57
2022/03/22 08:57:47;;;;;;;48.38;24.60;;;13.00;99.90;;;;;;5076861;28;20105;-56
2022/03/22 09:00:19;;;;;;;54.45;26.48;;;13.10;99.90;;;;;;5088725;28;20048;-58
2022/03/22 09:02:47;;;;;;;54.05;25.48;;;13.20;99.90;;;;;;5089384;28;20224;-58
2022/03/22 09:08:01;;;;;;;44.90;22.73;;;13.40;99.90;;;;;;5088041;28;20143;-58
2022/03/22 09:10:29;;;;;;;40.58;22.08;;;13.50;99.70;;;;;;5089395;28;20048;-59
2022/03/22 09:12:56;;;;;;;40.13;20.58;;;13.60;99.70;;;;;;5089488;28;20067;-58
2022/03/22 09:15:26;;;;;;;45.80;23.42;;;13.70;99.50;;;;;;5089491;28;20533;-59
2022/03/22 09:17:53;;;;;;;39.10;19.95;;;13.90;99.30;;;;;;5087463;28;20036;-58
2022/03/22 09:20:21;;;;;;;35.35;18.67;;;14.10;99.00;;;;;;5088743;28;20354;-61
2022/03/22 09:22:49;;;;;;;38.47;18.83;;;14.50;98.80;;;;;;5071384;28;20410;-58
2022/03/22 09:25:16;;;;;;;36.67;18.70;;;14.90;98.50;;;;;;5089731;28;20083;-59
2022/03/22 09:27:43;;;;;;;38.30;18.83;;;15.10;98.00;;;;;;5090020;28;20052;-59
2022/03/22 09:30:11;;;;;;;35.85;18.90;;;15.40;97.50;;;;;;5089192;28;20094;-58
2022/03/22 09:32:38;;;;;;;36.63;19.38;;;15.70;97.20;;;;;;5088986;28;20073;-58
2022/03/22 09:35:07;;;;;;;31.27;17.60;;;16.00;96.80;;;;;;5089242;28;20079;-57
2022/03/22 09:37:34;;;;;;;28.45;16.10;;;16.20;96.50;;;;;;5089259;28;20036;-57
2022/03/22 09:40:01;;;;;;;32.72;19.02;;;16.30;96.10;;;;;;5089153;28;20044;-57
2022/03/22 09:42:28;;;;;;;31.23;17.83;;;16.50;95.90;;;;;;5088817;28;20036;-60
2022/03/22 09:44:55;;;;;;;38.45;17.27;;;16.60;95.20;;;;;;5055074;28;20048;-58
2022/03/22 09:47:22;;;;;;;28.42;16.45;;;16.70;95.30;;;;;;5070859;28;20076;-59
2022/03/22 09:49:48;;;;;;;38.63;18.08;;;16.70;95.20;;;;;;5054356;28;20543;-60
2022/03/22 09:52:15;;;;;;;35.85;18.35;;;16.50;95.30;;;;;;5054390;28;20102;-60
2022/03/22 09:54:42;;;;;;;39.45;17.50;;;16.30;95.40;;;;;;5081340;28;20048;-58
2022/03/22 09:57:09;;;;;;;27.63;15.23;;;16.30;95.50;;;;;;5069804;28;20073;-58
2022/03/22 09:59:36;;;;;;;29.50;16.30;;;16.20;95.20;;;;;;5070603;28;20059;-60
2022/03/22 10:02:07;;;;;;;28.63;15.85;;;16.10;95.10;;;;;;5088912;28;20052;-61
2022/03/22 10:04:39;;;;;;;25.45;15.90;;;16.10;94.90;;;;;;5088027;28;20058;-59
2022/03/22 10:07:07;;;;;;;28.73;17.13;;;16.00;94.60;;;;;;5089352;28;20464;-59
2022/03/22 10:09:39;;;;;;;34.15;18.90;;;16.00;95.10;;;;;;5088427;28;20552;-58
2022/03/22 10:12:12;;;;;;;31.48;17.13;;;16.00;95.00;;;;;;5071129;28;20123;-59
2022/03/22 10:14:41;;;;;;;42.72;16.90;;;16.00;95.20;;;;;;5088353;28;20449;-58
2022/03/22 10:17:12;;;;;;;29.38;14.73;;;16.00;95.10;;;;;;5088782;28;20044;-58
2022/03/22 10:19:45;;;;;;;26.52;15.18;;;16.00;94.80;;;;;;5069358;28;20055;-59
2022/03/22 10:22:12;;;;;;;21.80;13.48;;;16.00;94.60;;;;;;5070669;28;20090;-59
2022/03/22 10:24:46;;;;;;;27.27;12.75;;;16.00;94.90;;;;;;5088873;28;20048;-58
2022/03/22 10:27:30;;;;;;;22.85;11.48;;;16.10;94.20;;;;;;5084180;28;20036;-57
2022/03/22 10:30:17;;;;;;;23.23;10.25;;;16.10;93.10;;;;;;5073745;28;20063;-59
2022/03/22 10:32:50;;;;;;;23.65;12.15;;;16.10;94.30;;;;;;5088575;28;20044;-58
2022/03/22 10:35:21;;;;;;;20.80;12.03;;;16.20;94.20;;;;;;5088126;28;20499;-59
2022/03/22 10:37:52;;;;;;;18.58;10.43;;;16.20;94.10;;;;;;5088705;28;20378;-58
2022/03/22 10:40:28;;;;;;;20.48;10.85;;;16.20;93.60;;;;;;5088571;28;20441;-59
2022/03/22 10:43:15;;;;;;;17.80;10.77;;;16.30;93.40;;;;;;5088526;28;20270;-59
2022/03/22 10:45:48;;;;;;;28.30;9.82;;;16.30;92.30;;;;;;5088018;28;20060;-59
2022/03/22 10:48:19;;;;;;;22.85;9.63;;;16.30;93.40;;;;;;5088548;28;20071;-58
2022/03/22 10:50:47;;;;;;;24.02;12.25;;;16.30;93.60;;;;;;5086846;28;20040;-59
2022/03/22 10:53:19;;;;;;;27.50;11.13;;;16.30;93.10;;;;;;5070390;28;20098;-58
2022/03/22 10:55:46;;;;;;;20.85;10.60;;;16.40;93.40;;;;;;5086828;28;20083;-58
2022/03/22 10:58:14;;;;;;;21.98;9.93;;;16.40;93.20;;;;;;5070392;28;20043;-58
2022/03/22 11:00:45;;;;;;;24.27;12.73;;;16.50;93.40;;;;;;5070156;28;20477;-59
2022/03/22 11:03:12;;;;;;;19.85;11.18;;;16.50;92.00;;;;;;5088372;28;20063;-60
2022/03/22 11:05:40;;;;;;;21.77;10.57;;;16.50;93.00;;;;;;5087965;28;20091;-59
2022/03/22 11:08:07;;;;;;;21.60;11.27;;;16.50;92.10;;;;;;5087043;28;20040;-58
2022/03/22 11:10:34;;;;;;;27.05;11.50;;;16.50;93.30;;;;;;5087224;28;20086;-59
2022/03/22 11:13:01;;;;;;;18.30;11.80;;;16.50;93.40;;;;;;5069965;28;20052;-59
2022/03/22 11:15:38;;;;;;;22.27;11.95;;;16.60;93.40;;;;;;5069697;28;20044;-59
2022/03/22 11:18:07;;;;;;;14.60;9.63;;;16.70;93.00;;;;;;5054327;28;20109;-58
2022/03/22 11:20:33;;;;;;;17.38;10.85;;;16.80;92.60;;;;;;5087139;28;20105;-58
2022/03/22 11:23:00;;;;;;;16.23;9.45;;;16.80;92.50;;;;;;5087231;28;20142;-57
2022/03/22 11:25:31;;;;;;;19.17;11.23;;;16.80;92.60;;;;;;5079725;28;20047;-60
2022/03/22 11:28:00;;;;;;;18.20;10.65;;;16.80;92.30;;;;;;5088298;28;20091;-60
2022/03/22 11:30:27;;;;;;;20.08;9.73;;;16.80;92.30;;;;;;5068633;28;20048;-57
2022/03/22 11:35:57;;;;;;;21.73;9.85;;;16.90;91.70;;;;;;5064223;28;20048;-59
2022/03/22 11:38:35;;;;;;;;;;;16.90;90.00;;;;;;5086097;28;20083;-59
2022/03/22 11:43:48;;;;;;;22.67;10.65;;;16.90;91.60;;;;;;5080301;28;20040;-59
2022/03/22 11:46:15;;;;;;;27.10;11.45;;;16.90;91.70;;;;;;5069045;28;20051;-58
2022/03/22 11:48:42;;;;;;;23.63;11.63;;;17.00;91.40;;;;;;5086389;28;20127;-59
2022/03/22 11:51:09;;;;;;;18.30;11.02;;;17.00;91.50;;;;;;5086918;28;20043;-60
2022/03/22 11:53:43;;;;;;;22.23;11.38;;;17.00;91.60;;;;;;5086938;28;20040;-59
2022/03/22 11:56:13;;;;;;;17.90;11.35;;;17.10;91.10;;;;;;5086765;28;20052;-60
2022/03/22 11:58:50;;;;;;;16.83;11.05;;;17.10;91.50;;;;;;5069028;28;20110;-59
2022/03/22 12:01:35;;;;;;;20.63;12.77;;;17.20;89.90;;;;;;5062949;28;20388;-60
2022/03/22 12:04:04;;;;;;;20.60;11.32;;;17.30;89.50;;;;;;5084032;28;20047;-59
2022/03/22 12:06:32;;;;;;;24.08;11.35;;;17.30;90.90;;;;;;5044790;28;20044;-59
2022/03/22 12:08:59;;;;;;;20.17;11.70;;;17.30;90.90;;;;;;5052254;28;20048;-59
2022/03/22 12:11:26;;;;;;;21.75;11.90;;;17.50;90.90;;;;;;5086556;28;20044;-59
2022/03/22 12:13:52;;;;;;;20.77;10.85;;;17.60;90.70;;;;;;5087143;28;20318;-60
2022/03/22 12:16:25;;;;;;;16.83;9.82;;;17.60;90.50;;;;;;5086820;28;20063;-59
2022/03/22 12:18:52;;;;;;;21.03;10.70;;;17.60;89.30;;;;;;5087269;28;21536;-59
2022/03/22 12:21:21;;;;;;;26.50;10.50;;;17.60;90.30;;;;;;5090886;28;20696;-58
2022/03/22 12:23:49;;;;;;;17.73;10.27;;;17.60;90.00;;;;;;5089307;28;20156;-58
2022/03/22 12:26:15;;;;;;;24.80;11.30;;;17.60;89.70;;;;;;5091067;28;20142;-58
2022/03/22 12:28:52;;;;;;;18.45;10.10;;;17.70;89.70;;;;;;5090646;28;20075;-59
2022/03/22 12:31:21;;;;;;;20.00;11.35;;;17.80;88.20;;;;;;5083078;28;20101;-59
2022/03/22 12:33:52;;;;;;;28.33;13.07;;;17.80;90.00;;;;;;5072047;28;20075;-60
2022/03/22 12:36:19;;;;;;;19.00;12.38;;;17.80;90.00;;;;;;5090135;28;20707;-59
2022/03/22 12:38:46;;;;;;;25.60;13.80;;;17.80;90.30;;;;;;5090806;28;20040;-58
2022/03/22 12:41:13;;;;;;;20.00;11.02;;;17.80;90.50;;;;;;5090485;28;20477;-59
2022/03/22 12:43:45;;;;;;;16.48;11.20;;;17.90;90.40;;;;;;5069955;28;20075;-60
2022/03/22 12:46:12;;;;;;;20.17;10.85;;;17.90;90.10;;;;;;5090536;28;20123;-59
2022/03/22 12:48:40;;;;;;;15.15;10.82;;;17.90;89.40;;;;;;5071519;28;20130;-59
2022/03/22 12:51:10;;;;;;;21.35;12.73;;;18.00;90.30;;;;;;5072388;28;20093;-58
2022/03/22 12:53:37;;;;;;;18.08;10.73;;;18.00;90.10;;;;;;5072055;28;20040;-59
2022/03/22 12:56:15;;;;;;;18.88;10.23;;;18.00;90.10;;;;;;5071310;28;20044;-58
2022/03/22 12:58:41;;;;;;;13.13;9.40;;;18.10;87.30;;;;;;5088750;28;20040;-59
2022/03/22 13:01:09;;;;;;;15.52;9.45;;;18.20;89.20;;;;;;5090132;28;21254;-59
2022/03/22 13:03:38;;;;;;;13.68;8.52;;;18.20;89.10;;;;;;5090647;28;20036;-59
2022/03/22 13:06:08;;;;;;;16.55;10.48;;;18.30;89.20;;;;;;5090919;28;20052;-60
2022/03/22 13:11:29;;;;;;;14.98;10.00;;;18.20;88.40;;;;;;5080044;28;20121;-59
2022/03/22 13:16:49;;;;;;;18.85;7.38;;;18.30;87.40;;;;;;5081570;28;20051;-62